sensor_id;sensor_type;location;lat;lon;timestamp;P1;durP1;ratioP1;P2;durP2;ratioP2
6689;SDS011;3382;51.576;8.076;2023-04-29T00:00:29;8.57;;;7.67;;
6689;SDS011;3382;51.576;8.076;2023-04-29T00:02:55;8.93;;;8.10;;
6689;SDS011;3382;51.576;8.076;2023-04-29T00:05:21;3.77;;;3.47;;
6689;SDS011;3382;51.576;8.076;2023-04-29T00:07:47;11.33;;;9.77;;
6689;SDS011;3382;51.576;8.076;2023-04-29T00:10:12;9.83;;;8.63;;
6689;SDS011;3382;51.576;8.076;2023-04-29T00:12:39;10.73;;;9.20;;
6689;SDS011;3382;51.576;8.076;2023-04-29T00:15:05;9.53;;;8.00;;
6689;SDS011;3382;51.576;8.076;2023-04-29T00:17:32;7.13;;;6.37;;
6689;SDS011;3382;51.576;8.076;2023-04-29T00:19:58;6.73;;;5.60;;
6689;SDS011;3382;51.576;8.076;2023-04-29T00:22:24;6.63;;;5.00;;
6689;SDS011;3382;51.576;8.076;2023-04-29T00:24:49;7.03;;;5.50;;
6689;SDS011;3382;51.576;8.076;2023-04-29T00:27:15;1.73;;;1.50;;
6689;SDS011;3382;51.576;8.076;2023-04-29T00:29:41;7.60;;;5.97;;
6689;SDS011;3382;51.576;8.076;2023-04-29T00:32:07;10.93;;;8.93;;
6689;SDS011;3382;51.576;8.076;2023-04-29T00:34:33;8.87;;;7.27;;
6689;SDS011;3382;51.576;8.076;2023-04-29T00:36:58;15.83;;;8.63;;
6689;SDS011;3382;51.576;8.076;2023-04-29T00:39:24;2.07;;;1.60;;
6689;SDS011;3382;51.576;8.076;2023-04-29T00:41:50;12.20;;;10.37;;
6689;SDS011;3382;51.576;8.076;2023-04-29T00:44:16;10.77;;;8.67;;
6689;SDS011;3382;51.576;8.076;2023-04-29T00:46:41;6.30;;;4.47;;
6689;SDS011;3382;51.576;8.076;2023-04-29T00:49:07;2.90;;;2.40;;
6689;SDS011;3382;51.576;8.076;2023-04-29T00:51:35;7.50;;;6.10;;
6689;SDS011;3382;51.576;8.076;2023-04-29T00:54:01;11.40;;;9.73;;
6689;SDS011;3382;51.576;8.076;2023-04-29T00:56:28;10.23;;;8.10;;
6689;SDS011;3382;51.576;8.076;2023-04-29T00:58:57;10.77;;;9.27;;
6689;SDS011;3382;51.576;8.076;2023-04-29T01:01:23;14.17;;;10.97;;
6689;SDS011;3382;51.576;8.076;2023-04-29T01:03:49;2.73;;;2.47;;
6689;SDS011;3382;51.576;8.076;2023-04-29T01:08:51;3.00;;;2.33;;
6689;SDS011;3382;51.576;8.076;2023-04-29T01:11:42;14.87;;;12.07;;
6689;SDS011;3382;51.576;8.076;2023-04-29T01:14:23;5.40;;;4.60;;
6689;SDS011;3382;51.576;8.076;2023-04-29T01:16:55;3.20;;;2.87;;
6689;SDS011;3382;51.576;8.076;2023-04-29T01:22:14;15.90;;;12.17;;
6689;SDS011;3382;51.576;8.076;2023-04-29T01:24:41;16.07;;;13.27;;
6689;SDS011;3382;51.576;8.076;2023-04-29T01:27:20;13.83;;;11.43;;
6689;SDS011;3382;51.576;8.076;2023-04-29T01:32:54;17.77;;;13.10;;
6689;SDS011;3382;51.576;8.076;2023-04-29T01:38:08;8.27;;;6.73;;
6689;SDS011;3382;51.576;8.076;2023-04-29T01:40:46;18.60;;;14.20;;
6689;SDS011;3382;51.576;8.076;2023-04-29T01:43:21;21.03;;;15.33;;
6689;SDS011;3382;51.576;8.076;2023-04-29T01:45:48;19.47;;;13.97;;
6689;SDS011;3382;51.576;8.076;2023-04-29T01:48:17;15.03;;;11.00;;
6689;SDS011;3382;51.576;8.076;2023-04-29T01:50:43;16.03;;;12.40;;
6689;SDS011;3382;51.576;8.076;2023-04-29T01:53:10;25.17;;;17.63;;
6689;SDS011;3382;51.576;8.076;2023-04-29T01:55:35;24.10;;;16.63;;
6689;SDS011;3382;51.576;8.076;2023-04-29T01:58:01;15.50;;;11.17;;
6689;SDS011;3382;51.576;8.076;2023-04-29T02:00:27;10.77;;;8.07;;
6689;SDS011;3382;51.576;8.076;2023-04-29T02:02:52;22.17;;;15.20;;
6689;SDS011;3382;51.576;8.076;2023-04-29T02:05:18;17.03;;;13.00;;
6689;SDS011;3382;51.576;8.076;2023-04-29T02:07:44;20.90;;;13.47;;
6689;SDS011;3382;51.576;8.076;2023-04-29T02:10:09;24.47;;;14.97;;
6689;SDS011;3382;51.576;8.076;2023-04-29T02:12:36;9.43;;;5.67;;
6689;SDS011;3382;51.576;8.076;2023-04-29T02:15:01;6.80;;;5.27;;
6689;SDS011;3382;51.576;8.076;2023-04-29T02:17:27;18.53;;;12.67;;
6689;SDS011;3382;51.576;8.076;2023-04-29T02:19:52;20.87;;;15.27;;
6689;SDS011;3382;51.576;8.076;2023-04-29T02:22:21;4.17;;;3.60;;
6689;SDS011;3382;51.576;8.076;2023-04-29T02:24:46;25.07;;;17.20;;
6689;SDS011;3382;51.576;8.076;2023-04-29T02:27:12;28.63;;;19.00;;
6689;SDS011;3382;51.576;8.076;2023-04-29T02:29:38;26.33;;;18.57;;
6689;SDS011;3382;51.576;8.076;2023-04-29T02:32:03;29.07;;;18.90;;
6689;SDS011;3382;51.576;8.076;2023-04-29T02:34:30;25.03;;;16.50;;
6689;SDS011;3382;51.576;8.076;2023-04-29T02:36:56;28.10;;;19.63;;
6689;SDS011;3382;51.576;8.076;2023-04-29T02:39:21;30.53;;;19.77;;
6689;SDS011;3382;51.576;8.076;2023-04-29T02:41:47;15.20;;;11.23;;
6689;SDS011;3382;51.576;8.076;2023-04-29T02:44:13;25.97;;;17.50;;
6689;SDS011;3382;51.576;8.076;2023-04-29T02:46:38;29.93;;;20.53;;
6689;SDS011;3382;51.576;8.076;2023-04-29T02:49:09;36.17;;;21.60;;
6689;SDS011;3382;51.576;8.076;2023-04-29T02:51:35;16.80;;;12.17;;
6689;SDS011;3382;51.576;8.076;2023-04-29T02:54:01;40.17;;;24.87;;
6689;SDS011;3382;51.576;8.076;2023-04-29T02:56:26;45.80;;;28.57;;
6689;SDS011;3382;51.576;8.076;2023-04-29T02:58:53;47.53;;;28.97;;
6689;SDS011;3382;51.576;8.076;2023-04-29T03:01:19;44.90;;;27.87;;
6689;SDS011;3382;51.576;8.076;2023-04-29T03:03:45;44.47;;;26.80;;
6689;SDS011;3382;51.576;8.076;2023-04-29T03:06:10;48.00;;;28.70;;
6689;SDS011;3382;51.576;8.076;2023-04-29T03:08:36;48.60;;;28.17;;
6689;SDS011;3382;51.576;8.076;2023-04-29T03:11:01;54.70;;;31.00;;
6689;SDS011;3382;51.576;8.076;2023-04-29T03:13:27;49.43;;;27.20;;
6689;SDS011;3382;51.576;8.076;2023-04-29T03:15:52;33.27;;;21.20;;
6689;SDS011;3382;51.576;8.076;2023-04-29T03:18:18;45.53;;;25.27;;
6689;SDS011;3382;51.576;8.076;2023-04-29T03:20:44;28.67;;;16.07;;
6689;SDS011;3382;51.576;8.076;2023-04-29T03:23:09;31.53;;;18.90;;
6689;SDS011;3382;51.576;8.076;2023-04-29T03:25:35;37.47;;;23.03;;
6689;SDS011;3382;51.576;8.076;2023-04-29T03:28:01;41.57;;;24.40;;
6689;SDS011;3382;51.576;8.076;2023-04-29T03:30:27;41.03;;;23.70;;
6689;SDS011;3382;51.576;8.076;2023-04-29T03:32:52;40.97;;;23.47;;
6689;SDS011;3382;51.576;8.076;2023-04-29T03:35:18;42.00;;;24.60;;
6689;SDS011;3382;51.576;8.076;2023-04-29T03:37:43;46.50;;;25.63;;
6689;SDS011;3382;51.576;8.076;2023-04-29T03:40:09;41.97;;;23.70;;
6689;SDS011;3382;51.576;8.076;2023-04-29T03:42:36;41.00;;;23.90;;
6689;SDS011;3382;51.576;8.076;2023-04-29T03:45:01;42.67;;;24.60;;
6689;SDS011;3382;51.576;8.076;2023-04-29T03:47:27;36.77;;;22.97;;
6689;SDS011;3382;51.576;8.076;2023-04-29T03:49:53;38.47;;;22.03;;
6689;SDS011;3382;51.576;8.076;2023-04-29T03:52:18;35.87;;;20.43;;
6689;SDS011;3382;51.576;8.076;2023-04-29T03:54:44;21.93;;;13.00;;
6689;SDS011;3382;51.576;8.076;2023-04-29T03:57:10;32.07;;;18.30;;
6689;SDS011;3382;51.576;8.076;2023-04-29T03:59:35;26.43;;;14.73;;
6689;SDS011;3382;51.576;8.076;2023-04-29T04:02:01;27.73;;;17.07;;
6689;SDS011;3382;51.576;8.076;2023-04-29T04:04:26;29.00;;;17.57;;
6689;SDS011;3382;51.576;8.076;2023-04-29T04:06:52;29.13;;;17.57;;
6689;SDS011;3382;51.576;8.076;2023-04-29T04:09:18;25.63;;;16.57;;
6689;SDS011;3382;51.576;8.076;2023-04-29T04:11:43;25.73;;;16.93;;
6689;SDS011;3382;51.576;8.076;2023-04-29T04:14:09;23.70;;;15.07;;
6689;SDS011;3382;51.576;8.076;2023-04-29T04:16:35;27.57;;;17.17;;
6689;SDS011;3382;51.576;8.076;2023-04-29T04:19:00;28.87;;;17.10;;
6689;SDS011;3382;51.576;8.076;2023-04-29T04:21:26;15.93;;;11.23;;
6689;SDS011;3382;51.576;8.076;2023-04-29T04:23:52;28.27;;;16.97;;
6689;SDS011;3382;51.576;8.076;2023-04-29T04:26:18;26.47;;;17.83;;
6689;SDS011;3382;51.576;8.076;2023-04-29T04:28:44;23.70;;;16.50;;
6689;SDS011;3382;51.576;8.076;2023-04-29T04:31:10;28.23;;;18.67;;
6689;SDS011;3382;51.576;8.076;2023-04-29T04:33:38;23.63;;;15.70;;
6689;SDS011;3382;51.576;8.076;2023-04-29T04:36:07;9.63;;;7.03;;
6689;SDS011;3382;51.576;8.076;2023-04-29T04:38:33;26.83;;;16.67;;
6689;SDS011;3382;51.576;8.076;2023-04-29T04:40:58;26.30;;;18.17;;
6689;SDS011;3382;51.576;8.076;2023-04-29T04:43:24;31.30;;;18.70;;
6689;SDS011;3382;51.576;8.076;2023-04-29T04:45:50;25.60;;;17.27;;
6689;SDS011;3382;51.576;8.076;2023-04-29T04:48:15;28.40;;;18.83;;
6689;SDS011;3382;51.576;8.076;2023-04-29T04:50:41;30.13;;;19.33;;
6689;SDS011;3382;51.576;8.076;2023-04-29T04:53:07;20.63;;;14.77;;
6689;SDS011;3382;51.576;8.076;2023-04-29T04:55:32;29.20;;;18.30;;
6689;SDS011;3382;51.576;8.076;2023-04-29T04:57:58;27.47;;;17.33;;
6689;SDS011;3382;51.576;8.076;2023-04-29T05:00:24;33.10;;;20.07;;
6689;SDS011;3382;51.576;8.076;2023-04-29T05:02:49;28.93;;;18.37;;
6689;SDS011;3382;51.576;8.076;2023-04-29T05:05:15;25.43;;;15.97;;
6689;SDS011;3382;51.576;8.076;2023-04-29T05:07:41;32.00;;;21.23;;
6689;SDS011;3382;51.576;8.076;2023-04-29T05:10:08;39.70;;;21.47;;
6689;SDS011;3382;51.576;8.076;2023-04-29T05:12:33;33.30;;;20.50;;
6689;SDS011;3382;51.576;8.076;2023-04-29T05:14:59;29.90;;;19.23;;
6689;SDS011;3382;51.576;8.076;2023-04-29T05:17:25;36.57;;;22.37;;
6689;SDS011;3382;51.576;8.076;2023-04-29T05:19:51;34.27;;;21.10;;
6689;SDS011;3382;51.576;8.076;2023-04-29T05:22:17;15.40;;;10.77;;
6689;SDS011;3382;51.576;8.076;2023-04-29T05:24:42;33.63;;;22.30;;
6689;SDS011;3382;51.576;8.076;2023-04-29T05:27:08;38.80;;;23.20;;
6689;SDS011;3382;51.576;8.076;2023-04-29T05:29:34;39.87;;;24.27;;
6689;SDS011;3382;51.576;8.076;2023-04-29T05:31:59;40.67;;;24.73;;
6689;SDS011;3382;51.576;8.076;2023-04-29T05:34:25;38.00;;;24.10;;
6689;SDS011;3382;51.576;8.076;2023-04-29T05:36:50;41.10;;;24.03;;
6689;SDS011;3382;51.576;8.076;2023-04-29T05:39:16;39.00;;;24.63;;
6689;SDS011;3382;51.576;8.076;2023-04-29T05:41:42;38.43;;;23.47;;
6689;SDS011;3382;51.576;8.076;2023-04-29T05:44:07;38.57;;;23.40;;
6689;SDS011;3382;51.576;8.076;2023-04-29T05:46:33;37.63;;;23.07;;
6689;SDS011;3382;51.576;8.076;2023-04-29T05:48:59;39.93;;;23.90;;
6689;SDS011;3382;51.576;8.076;2023-04-29T05:51:24;37.50;;;22.53;;
6689;SDS011;3382;51.576;8.076;2023-04-29T05:53:52;22.60;;;14.73;;
6689;SDS011;3382;51.576;8.076;2023-04-29T05:56:18;31.83;;;20.90;;
6689;SDS011;3382;51.576;8.076;2023-04-29T05:58:44;21.23;;;14.37;;
6689;SDS011;3382;51.576;8.076;2023-04-29T06:01:09;6.50;;;4.57;;
6689;SDS011;3382;51.576;8.076;2023-04-29T06:03:35;5.40;;;3.90;;
6689;SDS011;3382;51.576;8.076;2023-04-29T06:06:03;12.20;;;8.30;;
6689;SDS011;3382;51.576;8.076;2023-04-29T06:08:29;7.07;;;4.07;;
6689;SDS011;3382;51.576;8.076;2023-04-29T06:10:55;4.33;;;3.33;;
6689;SDS011;3382;51.576;8.076;2023-04-29T06:13:20;12.27;;;9.13;;
6689;SDS011;3382;51.576;8.076;2023-04-29T06:15:46;4.83;;;3.20;;
6689;SDS011;3382;51.576;8.076;2023-04-29T06:18:12;17.80;;;13.90;;
6689;SDS011;3382;51.576;8.076;2023-04-29T06:20:37;25.00;;;17.57;;
6689;SDS011;3382;51.576;8.076;2023-04-29T06:23:03;25.17;;;18.83;;
6689;SDS011;3382;51.576;8.076;2023-04-29T06:25:29;25.77;;;20.03;;
6689;SDS011;3382;51.576;8.076;2023-04-29T06:27:55;29.30;;;21.23;;
6689;SDS011;3382;51.576;8.076;2023-04-29T06:30:21;29.97;;;21.87;;
6689;SDS011;3382;51.576;8.076;2023-04-29T06:32:47;29.77;;;20.80;;
6689;SDS011;3382;51.576;8.076;2023-04-29T06:35:13;27.77;;;20.83;;
6689;SDS011;3382;51.576;8.076;2023-04-29T06:37:38;31.20;;;19.93;;
6689;SDS011;3382;51.576;8.076;2023-04-29T06:40:05;28.53;;;21.23;;
6689;SDS011;3382;51.576;8.076;2023-04-29T06:42:31;31.77;;;21.20;;
6689;SDS011;3382;51.576;8.076;2023-04-29T06:44:56;34.23;;;22.97;;
6689;SDS011;3382;51.576;8.076;2023-04-29T06:47:22;32.00;;;20.63;;
6689;SDS011;3382;51.576;8.076;2023-04-29T06:49:47;29.43;;;20.10;;
6689;SDS011;3382;51.576;8.076;2023-04-29T06:52:13;25.47;;;18.33;;
6689;SDS011;3382;51.576;8.076;2023-04-29T06:54:39;28.73;;;20.20;;
6689;SDS011;3382;51.576;8.076;2023-04-29T06:57:04;35.33;;;22.27;;
6689;SDS011;3382;51.576;8.076;2023-04-29T06:59:30;27.07;;;18.37;;
6689;SDS011;3382;51.576;8.076;2023-04-29T07:01:56;29.53;;;19.97;;
6689;SDS011;3382;51.576;8.076;2023-04-29T07:04:22;26.87;;;18.47;;
6689;SDS011;3382;51.576;8.076;2023-04-29T07:06:48;28.63;;;19.23;;
6689;SDS011;3382;51.576;8.076;2023-04-29T07:09:14;25.40;;;18.60;;
6689;SDS011;3382;51.576;8.076;2023-04-29T07:11:39;13.97;;;6.93;;
6689;SDS011;3382;51.576;8.076;2023-04-29T07:14:05;19.13;;;5.93;;
6689;SDS011;3382;51.576;8.076;2023-04-29T07:16:31;24.07;;;16.23;;
6689;SDS011;3382;51.576;8.076;2023-04-29T07:18:57;22.50;;;16.57;;
6689;SDS011;3382;51.576;8.076;2023-04-29T07:21:23;35.53;;;17.13;;
6689;SDS011;3382;51.576;8.076;2023-04-29T07:23:49;22.13;;;16.37;;
6689;SDS011;3382;51.576;8.076;2023-04-29T07:26:15;21.73;;;16.80;;
6689;SDS011;3382;51.576;8.076;2023-04-29T07:28:42;23.30;;;17.00;;
6689;SDS011;3382;51.576;8.076;2023-04-29T07:31:08;28.03;;;18.40;;
6689;SDS011;3382;51.576;8.076;2023-04-29T07:33:36;22.83;;;17.57;;
6689;SDS011;3382;51.576;8.076;2023-04-29T07:36:02;25.57;;;18.43;;
6689;SDS011;3382;51.576;8.076;2023-04-29T07:38:28;27.80;;;18.13;;
6689;SDS011;3382;51.576;8.076;2023-04-29T07:40:54;28.33;;;18.33;;
6689;SDS011;3382;51.576;8.076;2023-04-29T07:43:20;26.33;;;17.93;;
6689;SDS011;3382;51.576;8.076;2023-04-29T07:45:46;27.40;;;18.27;;
6689;SDS011;3382;51.576;8.076;2023-04-29T07:48:12;26.23;;;18.43;;
6689;SDS011;3382;51.576;8.076;2023-04-29T07:50:37;22.77;;;17.03;;
6689;SDS011;3382;51.576;8.076;2023-04-29T07:53:03;25.10;;;19.17;;
6689;SDS011;3382;51.576;8.076;2023-04-29T07:55:29;25.60;;;18.73;;
6689;SDS011;3382;51.576;8.076;2023-04-29T07:57:55;27.50;;;19.87;;
6689;SDS011;3382;51.576;8.076;2023-04-29T08:00:22;33.10;;;20.50;;
6689;SDS011;3382;51.576;8.076;2023-04-29T08:02:51;29.60;;;19.33;;
6689;SDS011;3382;51.576;8.076;2023-04-29T08:05:17;26.90;;;18.20;;
6689;SDS011;3382;51.576;8.076;2023-04-29T08:07:45;29.00;;;19.53;;
6689;SDS011;3382;51.576;8.076;2023-04-29T08:10:14;26.77;;;19.23;;
6689;SDS011;3382;51.576;8.076;2023-04-29T08:12:40;28.77;;;18.63;;
6689;SDS011;3382;51.576;8.076;2023-04-29T08:15:06;29.67;;;19.60;;
6689;SDS011;3382;51.576;8.076;2023-04-29T08:17:32;29.97;;;20.33;;
6689;SDS011;3382;51.576;8.076;2023-04-29T08:19:57;28.77;;;19.53;;
6689;SDS011;3382;51.576;8.076;2023-04-29T08:22:23;30.57;;;19.23;;
6689;SDS011;3382;51.576;8.076;2023-04-29T08:24:49;32.17;;;20.10;;
6689;SDS011;3382;51.576;8.076;2023-04-29T08:27:14;27.50;;;18.33;;
6689;SDS011;3382;51.576;8.076;2023-04-29T08:29:40;29.90;;;20.37;;
6689;SDS011;3382;51.576;8.076;2023-04-29T08:32:07;29.13;;;19.60;;
6689;SDS011;3382;51.576;8.076;2023-04-29T08:34:32;27.93;;;20.23;;
6689;SDS011;3382;51.576;8.076;2023-04-29T08:37:00;26.17;;;19.97;;
6689;SDS011;3382;51.576;8.076;2023-04-29T08:39:27;31.03;;;21.20;;
6689;SDS011;3382;51.576;8.076;2023-04-29T08:41:55;30.67;;;20.60;;
6689;SDS011;3382;51.576;8.076;2023-04-29T08:44:21;33.00;;;21.10;;
6689;SDS011;3382;51.576;8.076;2023-04-29T08:46:47;33.67;;;22.40;;
6689;SDS011;3382;51.576;8.076;2023-04-29T08:49:14;29.43;;;21.53;;
6689;SDS011;3382;51.576;8.076;2023-04-29T08:51:40;30.20;;;21.43;;
6689;SDS011;3382;51.576;8.076;2023-04-29T08:54:06;31.50;;;21.20;;
6689;SDS011;3382;51.576;8.076;2023-04-29T08:56:32;33.23;;;21.50;;
6689;SDS011;3382;51.576;8.076;2023-04-29T08:58:58;33.17;;;22.23;;
6689;SDS011;3382;51.576;8.076;2023-04-29T09:01:26;32.70;;;22.83;;
6689;SDS011;3382;51.576;8.076;2023-04-29T09:03:54;33.93;;;21.90;;
6689;SDS011;3382;51.576;8.076;2023-04-29T09:06:39;31.83;;;22.20;;
6689;SDS011;3382;51.576;8.076;2023-04-29T09:09:04;30.00;;;21.73;;
6689;SDS011;3382;51.576;8.076;2023-04-29T09:11:30;32.93;;;22.10;;
6689;SDS011;3382;51.576;8.076;2023-04-29T09:14:00;32.20;;;22.83;;
6689;SDS011;3382;51.576;8.076;2023-04-29T09:16:27;31.53;;;22.40;;
6689;SDS011;3382;51.576;8.076;2023-04-29T09:18:53;34.33;;;23.40;;
6689;SDS011;3382;51.576;8.076;2023-04-29T09:23:57;31.37;;;22.47;;
6689;SDS011;3382;51.576;8.076;2023-04-29T09:26:26;30.03;;;22.37;;
6689;SDS011;3382;51.576;8.076;2023-04-29T09:29:11;31.30;;;23.00;;
6689;SDS011;3382;51.576;8.076;2023-04-29T09:31:42;29.70;;;22.33;;
6689;SDS011;3382;51.576;8.076;2023-04-29T09:34:08;29.47;;;21.93;;
6689;SDS011;3382;51.576;8.076;2023-04-29T09:39:02;30.93;;;23.37;;
6689;SDS011;3382;51.576;8.076;2023-04-29T09:41:35;26.77;;;21.87;;
6689;SDS011;3382;51.576;8.076;2023-04-29T09:44:06;33.67;;;23.23;;
6689;SDS011;3382;51.576;8.076;2023-04-29T09:46:32;27.87;;;21.73;;
6689;SDS011;3382;51.576;8.076;2023-04-29T09:48:59;29.30;;;21.00;;
6689;SDS011;3382;51.576;8.076;2023-04-29T09:51:25;26.97;;;22.17;;
6689;SDS011;3382;51.576;8.076;2023-04-29T09:53:50;27.83;;;19.97;;
6689;SDS011;3382;51.576;8.076;2023-04-29T09:56:16;26.17;;;20.50;;
6689;SDS011;3382;51.576;8.076;2023-04-29T09:58:42;25.23;;;21.30;;
6689;SDS011;3382;51.576;8.076;2023-04-29T10:01:07;25.87;;;20.57;;
6689;SDS011;3382;51.576;8.076;2023-04-29T10:03:37;26.07;;;20.97;;
6689;SDS011;3382;51.576;8.076;2023-04-29T10:06:03;27.47;;;21.33;;
6689;SDS011;3382;51.576;8.076;2023-04-29T10:08:30;28.83;;;21.33;;
6689;SDS011;3382;51.576;8.076;2023-04-29T10:10:58;28.87;;;22.00;;
6689;SDS011;3382;51.576;8.076;2023-04-29T10:13:26;28.63;;;21.13;;
6689;SDS011;3382;51.576;8.076;2023-04-29T10:18:36;27.53;;;22.37;;
6689;SDS011;3382;51.576;8.076;2023-04-29T10:21:07;31.13;;;21.47;;
6689;SDS011;3382;51.576;8.076;2023-04-29T10:23:36;27.33;;;20.70;;
6689;SDS011;3382;51.576;8.076;2023-04-29T10:26:02;26.40;;;20.67;;
6689;SDS011;3382;51.576;8.076;2023-04-29T10:28:30;24.17;;;19.63;;
6689;SDS011;3382;51.576;8.076;2023-04-29T10:30:56;23.20;;;19.77;;
6689;SDS011;3382;51.576;8.076;2023-04-29T10:33:25;25.07;;;20.00;;
6689;SDS011;3382;51.576;8.076;2023-04-29T10:35:52;23.73;;;20.17;;
6689;SDS011;3382;51.576;8.076;2023-04-29T10:38:23;25.63;;;20.00;;
6689;SDS011;3382;51.576;8.076;2023-04-29T10:41:06;23.70;;;18.47;;
6689;SDS011;3382;51.576;8.076;2023-04-29T10:43:37;21.87;;;16.80;;
6689;SDS011;3382;51.576;8.076;2023-04-29T10:48:45;22.87;;;18.50;;
6689;SDS011;3382;51.576;8.076;2023-04-29T10:51:11;25.53;;;19.50;;
6689;SDS011;3382;51.576;8.076;2023-04-29T10:56:35;31.03;;;18.37;;
6689;SDS011;3382;51.576;8.076;2023-04-29T10:59:01;183.10;;;88.40;;
6689;SDS011;3382;51.576;8.076;2023-04-29T11:01:39;179.33;;;95.47;;
6689;SDS011;3382;51.576;8.076;2023-04-29T11:04:12;169.80;;;92.63;;
6689;SDS011;3382;51.576;8.076;2023-04-29T11:06:40;145.63;;;90.30;;
6689;SDS011;3382;51.576;8.076;2023-04-29T11:09:17;84.23;;;58.50;;
6689;SDS011;3382;51.576;8.076;2023-04-29T11:14:13;214.10;;;163.17;;
6689;SDS011;3382;51.576;8.076;2023-04-29T11:16:54;368.87;;;307.33;;
6689;SDS011;3382;51.576;8.076;2023-04-29T11:19:29;233.23;;;191.73;;
6689;SDS011;3382;51.576;8.076;2023-04-29T11:22:02;112.77;;;91.90;;
6689;SDS011;3382;51.576;8.076;2023-04-29T11:25:04;61.90;;;44.93;;
6689;SDS011;3382;51.576;8.076;2023-04-29T11:27:35;45.67;;;38.23;;
6689;SDS011;3382;51.576;8.076;2023-04-29T11:30:05;20.30;;;16.33;;
6689;SDS011;3382;51.576;8.076;2023-04-29T11:32:32;30.13;;;23.00;;
6689;SDS011;3382;51.576;8.076;2023-04-29T11:35:15;19.47;;;16.37;;
6689;SDS011;3382;51.576;8.076;2023-04-29T11:37:42;21.73;;;16.83;;
6689;SDS011;3382;51.576;8.076;2023-04-29T11:40:09;21.30;;;16.57;;
6689;SDS011;3382;51.576;8.076;2023-04-29T11:42:43;84.53;;;58.90;;
6689;SDS011;3382;51.576;8.076;2023-04-29T11:45:10;50.07;;;36.67;;
6689;SDS011;3382;51.576;8.076;2023-04-29T11:47:37;33.97;;;24.80;;
6689;SDS011;3382;51.576;8.076;2023-04-29T11:50:08;21.83;;;17.03;;
6689;SDS011;3382;51.576;8.076;2023-04-29T11:52:35;22.53;;;16.03;;
6689;SDS011;3382;51.576;8.076;2023-04-29T11:55:02;20.13;;;14.37;;
6689;SDS011;3382;51.576;8.076;2023-04-29T11:57:29;18.57;;;15.30;;
6689;SDS011;3382;51.576;8.076;2023-04-29T11:59:56;20.60;;;12.77;;
6689;SDS011;3382;51.576;8.076;2023-04-29T12:02:22;15.37;;;12.60;;
6689;SDS011;3382;51.576;8.076;2023-04-29T12:04:53;15.13;;;11.90;;
6689;SDS011;3382;51.576;8.076;2023-04-29T12:07:19;16.47;;;12.43;;
6689;SDS011;3382;51.576;8.076;2023-04-29T12:09:45;14.70;;;11.73;;
6689;SDS011;3382;51.576;8.076;2023-04-29T12:12:12;11.83;;;10.50;;
6689;SDS011;3382;51.576;8.076;2023-04-29T12:14:38;16.13;;;12.50;;
6689;SDS011;3382;51.576;8.076;2023-04-29T12:17:05;18.13;;;12.23;;
6689;SDS011;3382;51.576;8.076;2023-04-29T12:19:31;16.53;;;13.73;;
6689;SDS011;3382;51.576;8.076;2023-04-29T12:21:57;17.23;;;14.90;;
6689;SDS011;3382;51.576;8.076;2023-04-29T12:24:24;19.70;;;15.50;;
6689;SDS011;3382;51.576;8.076;2023-04-29T12:26:49;17.90;;;15.23;;
6689;SDS011;3382;51.576;8.076;2023-04-29T12:29:15;17.77;;;15.70;;
6689;SDS011;3382;51.576;8.076;2023-04-29T12:31:46;17.63;;;14.23;;
6689;SDS011;3382;51.576;8.076;2023-04-29T12:34:11;21.67;;;15.40;;
6689;SDS011;3382;51.576;8.076;2023-04-29T12:36:40;19.23;;;15.83;;
6689;SDS011;3382;51.576;8.076;2023-04-29T12:39:06;19.10;;;14.60;;
6689;SDS011;3382;51.576;8.076;2023-04-29T12:41:35;18.77;;;15.37;;
6689;SDS011;3382;51.576;8.076;2023-04-29T12:44:01;19.40;;;16.50;;
6689;SDS011;3382;51.576;8.076;2023-04-29T12:46:33;18.70;;;16.00;;
6689;SDS011;3382;51.576;8.076;2023-04-29T12:49:01;19.30;;;15.63;;
6689;SDS011;3382;51.576;8.076;2023-04-29T12:51:28;20.10;;;16.47;;
6689;SDS011;3382;51.576;8.076;2023-04-29T12:54:00;19.67;;;16.07;;
6689;SDS011;3382;51.576;8.076;2023-04-29T12:56:27;20.87;;;16.47;;
6689;SDS011;3382;51.576;8.076;2023-04-29T12:58:54;20.43;;;15.53;;
6689;SDS011;3382;51.576;8.076;2023-04-29T13:01:20;17.30;;;15.33;;
6689;SDS011;3382;51.576;8.076;2023-04-29T13:03:46;22.90;;;16.07;;
6689;SDS011;3382;51.576;8.076;2023-04-29T13:06:11;22.37;;;16.43;;
6689;SDS011;3382;51.576;8.076;2023-04-29T13:08:37;21.03;;;15.50;;
6689;SDS011;3382;51.576;8.076;2023-04-29T13:11:02;20.07;;;16.20;;
6689;SDS011;3382;51.576;8.076;2023-04-29T13:13:28;18.17;;;15.10;;
6689;SDS011;3382;51.576;8.076;2023-04-29T13:15:54;18.93;;;16.50;;
6689;SDS011;3382;51.576;8.076;2023-04-29T13:18:20;17.47;;;15.53;;
6689;SDS011;3382;51.576;8.076;2023-04-29T13:20:45;20.03;;;16.10;;
6689;SDS011;3382;51.576;8.076;2023-04-29T13:23:11;18.53;;;14.93;;
6689;SDS011;3382;51.576;8.076;2023-04-29T13:25:36;18.57;;;15.57;;
6689;SDS011;3382;51.576;8.076;2023-04-29T13:28:02;20.67;;;15.73;;
6689;SDS011;3382;51.576;8.076;2023-04-29T13:30:29;18.80;;;14.57;;
6689;SDS011;3382;51.576;8.076;2023-04-29T13:32:55;16.97;;;14.50;;
6689;SDS011;3382;51.576;8.076;2023-04-29T13:35:21;19.30;;;13.93;;
6689;SDS011;3382;51.576;8.076;2023-04-29T13:37:46;19.70;;;14.50;;
6689;SDS011;3382;51.576;8.076;2023-04-29T13:40:13;18.77;;;14.40;;
6689;SDS011;3382;51.576;8.076;2023-04-29T13:42:38;19.57;;;15.03;;
6689;SDS011;3382;51.576;8.076;2023-04-29T13:45:04;15.37;;;13.40;;
6689;SDS011;3382;51.576;8.076;2023-04-29T13:47:30;18.13;;;14.93;;
6689;SDS011;3382;51.576;8.076;2023-04-29T13:49:55;19.67;;;15.27;;
6689;SDS011;3382;51.576;8.076;2023-04-29T13:52:21;17.57;;;14.30;;
6689;SDS011;3382;51.576;8.076;2023-04-29T13:54:47;18.77;;;14.50;;
6689;SDS011;3382;51.576;8.076;2023-04-29T13:57:12;21.97;;;15.57;;
6689;SDS011;3382;51.576;8.076;2023-04-29T13:59:38;17.40;;;14.73;;
6689;SDS011;3382;51.576;8.076;2023-04-29T14:02:04;16.97;;;14.23;;
6689;SDS011;3382;51.576;8.076;2023-04-29T14:04:29;18.63;;;14.23;;
6689;SDS011;3382;51.576;8.076;2023-04-29T14:06:55;18.90;;;14.50;;
6689;SDS011;3382;51.576;8.076;2023-04-29T14:09:21;17.93;;;13.90;;
6689;SDS011;3382;51.576;8.076;2023-04-29T14:11:48;19.90;;;13.93;;
6689;SDS011;3382;51.576;8.076;2023-04-29T14:14:14;17.10;;;12.50;;
6689;SDS011;3382;51.576;8.076;2023-04-29T14:16:43;15.43;;;12.80;;
6689;SDS011;3382;51.576;8.076;2023-04-29T14:19:08;18.50;;;14.90;;
6689;SDS011;3382;51.576;8.076;2023-04-29T14:21:35;15.17;;;12.97;;
6689;SDS011;3382;51.576;8.076;2023-04-29T14:24:01;16.87;;;12.27;;
6689;SDS011;3382;51.576;8.076;2023-04-29T14:26:27;14.33;;;12.70;;
6689;SDS011;3382;51.576;8.076;2023-04-29T14:28:57;19.87;;;12.67;;
6689;SDS011;3382;51.576;8.076;2023-04-29T14:31:26;16.60;;;12.00;;
6689;SDS011;3382;51.576;8.076;2023-04-29T14:33:58;19.30;;;12.60;;
6689;SDS011;3382;51.576;8.076;2023-04-29T14:36:23;15.10;;;12.67;;
6689;SDS011;3382;51.576;8.076;2023-04-29T14:38:50;17.93;;;12.80;;
6689;SDS011;3382;51.576;8.076;2023-04-29T14:41:16;16.97;;;12.37;;
6689;SDS011;3382;51.576;8.076;2023-04-29T14:43:42;15.73;;;13.67;;
6689;SDS011;3382;51.576;8.076;2023-04-29T14:46:07;15.47;;;12.63;;
6689;SDS011;3382;51.576;8.076;2023-04-29T14:48:33;16.57;;;11.80;;
6689;SDS011;3382;51.576;8.076;2023-04-29T14:50:59;16.27;;;12.00;;
6689;SDS011;3382;51.576;8.076;2023-04-29T14:53:25;12.50;;;10.80;;
6689;SDS011;3382;51.576;8.076;2023-04-29T14:55:50;13.80;;;11.13;;
6689;SDS011;3382;51.576;8.076;2023-04-29T14:58:16;15.23;;;11.23;;
6689;SDS011;3382;51.576;8.076;2023-04-29T15:00:42;14.70;;;11.20;;
6689;SDS011;3382;51.576;8.076;2023-04-29T15:03:08;11.60;;;10.50;;
6689;SDS011;3382;51.576;8.076;2023-04-29T15:05:34;12.10;;;9.47;;
6689;SDS011;3382;51.576;8.076;2023-04-29T15:08:00;12.90;;;10.20;;
6689;SDS011;3382;51.576;8.076;2023-04-29T15:10:29;13.37;;;9.80;;
6689;SDS011;3382;51.576;8.076;2023-04-29T15:12:55;11.87;;;10.63;;
6689;SDS011;3382;51.576;8.076;2023-04-29T15:15:21;17.73;;;6.57;;